Time;durP1;ratioP1;P1;durP2;ratioP2;P2;SDS_P1;SDS_P2;PMS_P1;PMS_P2;Temp;Humidity;BMP_temperature;BMP_pressure;BME280_temperature;BME280_humidity;BME280_pressure;Samples;Min_cycle;Max_cycle;Signal;HPM_P1;HPM_P2
2021/05/24 00:00:08;;;;;;;4.10;3.80;;;13.20;1.00;;;;;;5110834;28;20978;-57
2021/05/24 00:02:35;;;;;;;3.80;3.37;;;13.20;1.00;;;;;;5106899;28;20458;-57
2021/05/24 00:05:00;;;;;;;4.03;3.73;;;13.20;1.00;;;;;;5110438;28;20520;-57
2021/05/24 00:07:26;;;;;;;3.03;2.80;;;13.10;1.00;;;;;;5109990;28;20559;-57
2021/05/24 00:09:51;;;;;;;3.80;3.50;;;13.10;1.00;;;;;;5109664;28;20702;-57
2021/05/24 00:12:25;;;;;;;3.50;3.20;;;13.00;1.00;;;;;;5109623;28;20239;-57
2021/05/24 00:14:50;;;;;;;3.90;3.50;;;13.00;1.00;;;;;;5109995;28;20174;-57
2021/05/24 00:17:16;;;;;;;4.20;3.60;;;12.90;1.00;;;;;;5110453;28;20450;-57
2021/05/24 00:19:41;;;;;;;3.93;3.33;;;12.90;1.00;;;;;;5110228;28;20189;-57
2021/05/24 00:22:07;;;;;;;4.10;3.80;;;12.90;1.00;;;;;;5084401;28;20179;-57
2021/05/24 00:24:32;;;;;;;4.10;3.80;;;12.90;1.00;;;;;;5107639;28;20185;-57
2021/05/24 00:26:58;;;;;;;3.70;3.40;;;12.90;1.00;;;;;;5110600;28;20543;-57
2021/05/24 00:29:25;;;;;;;4.00;3.70;;;12.90;1.00;;;;;;5110680;28;20551;-57
2021/05/24 00:31:51;;;;;;;3.30;3.07;;;12.80;1.00;;;;;;5096808;28;20190;-57
2021/05/24 00:34:16;;;;;;;4.97;2.90;;;12.70;1.00;;;;;;5109152;28;20467;-57
2021/05/24 00:36:42;;;;;;;3.50;3.20;;;12.70;1.00;;;;;;5110495;28;20703;-57
2021/05/24 00:39:08;;;;;;;4.10;3.77;;;12.70;1.00;;;;;;5110239;28;20190;-57
2021/05/24 00:41:39;;;;;;;4.17;3.47;;;12.60;1.00;;;;;;5110544;28;20175;-57
2021/05/24 00:44:06;;;;;;;3.10;2.90;;;12.60;1.00;;;;;;5109777;28;20444;-57
2021/05/24 00:46:33;;;;;;;6.33;3.63;;;12.60;1.00;;;;;;5110211;28;20954;-57
2021/05/24 00:48:58;;;;;;;4.50;4.10;;;12.70;1.00;;;;;;5111782;28;20704;-57
2021/05/24 00:51:24;;;;;;;3.53;3.23;;;12.70;1.00;;;;;;5113692;28;20741;-57
2021/05/24 00:53:50;;;;;;;4.10;3.33;;;12.60;1.00;;;;;;5112806;28;20737;-57
2021/05/24 00:56:16;;;;;;;3.20;2.93;;;12.60;1.00;;;;;;5095279;28;20545;-57
2021/05/24 00:58:42;;;;;;;2.87;2.67;;;12.60;1.00;;;;;;5095078;28;20170;-57
2021/05/24 01:01:07;;;;;;;4.03;3.00;;;12.50;1.00;;;;;;5113765;27;20446;-57
2021/05/24 01:03:33;;;;;;;3.03;2.73;;;12.40;1.00;;;;;;5113475;28;20188;-57
2021/05/24 01:05:58;;;;;;;3.70;3.40;;;12.30;1.00;;;;;;5113078;28;20673;-57
2021/05/24 01:08:24;;;;;;;3.33;3.03;;;12.20;1.00;;;;;;5112622;28;20504;-58
2021/05/24 01:10:49;;;;;;;3.57;3.27;;;12.20;1.00;;;;;;5113489;28;20189;-57
2021/05/24 01:13:16;;;;;;;4.73;3.30;;;12.20;1.00;;;;;;5112809;28;20266;-58
2021/05/24 01:15:42;;;;;;;4.93;3.57;;;12.10;1.00;;;;;;5113633;28;20178;-57
2021/05/24 01:18:07;;;;;;;3.80;3.40;;;12.10;1.00;;;;;;5113248;28;20533;-57
2021/05/24 01:20:33;;;;;;;4.63;3.20;;;12.10;1.00;;;;;;5113095;28;20186;-57
2021/05/24 01:25:32;;;;;;;3.03;2.80;;;12.20;1.00;;;;;;5113523;28;20443;-57
2021/05/24 01:27:58;;;;;;;3.80;3.23;;;12.10;1.00;;;;;;5093950;28;20487;-57
2021/05/24 01:30:24;;;;;;;2.80;2.60;;;12.10;1.00;;;;;;5102441;27;20458;-57
2021/05/24 01:32:50;;;;;;;3.50;3.20;;;12.00;1.00;;;;;;5112700;28;20467;-57
2021/05/24 01:35:16;;;;;;;3.43;3.13;;;12.00;1.00;;;;;;5112858;28;20268;-57
2021/05/24 01:37:41;;;;;;;3.07;2.80;;;12.00;1.00;;;;;;5111781;28;20974;-57
2021/05/24 01:40:08;;;;;;;3.10;2.30;;;11.90;1.00;;;;;;5113068;28;20452;-57
2021/05/24 01:42:34;;;;;;;3.07;2.77;;;12.00;1.00;;;;;;5112794;28;20182;-57
2021/05/24 01:44:59;;;;;;;3.37;2.83;;;12.00;1.00;;;;;;5112864;28;20444;-57
2021/05/24 01:47:25;;;;;;;2.93;2.63;;;11.90;1.00;;;;;;5112851;27;20194;-57
2021/05/24 01:49:50;;;;;;;2.70;2.47;;;11.90;1.00;;;;;;5112455;28;20269;-57
2021/05/24 01:52:18;;;;;;;3.63;2.60;;;11.80;1.00;;;;;;5094402;28;20631;-57
2021/05/24 01:54:46;;;;;;;2.90;2.50;;;11.90;1.00;;;;;;5112481;28;20190;-57
2021/05/24 01:57:12;;;;;;;3.70;2.67;;;11.90;1.00;;;;;;5112241;28;20451;-57
2021/05/24 01:59:39;;;;;;;3.47;3.17;;;11.80;1.00;;;;;;5111697;28;20458;-57
2021/05/24 02:02:05;;;;;;;2.87;2.67;;;11.80;1.00;;;;;;5111962;28;20465;-57
2021/05/24 02:04:31;;;;;;;5.00;2.60;;;11.70;1.00;;;;;;5111963;28;20453;-57
2021/05/24 02:06:58;;;;;;;3.27;2.10;;;11.70;1.00;;;;;;5112147;28;20924;-57
2021/05/24 02:09:24;;;;;;;5.50;3.00;;;11.70;1.00;;;;;;5112392;28;20191;-57
2021/05/24 02:11:50;;;;;;;3.07;2.77;;;11.60;1.00;;;;;;5111868;28;20637;-57
2021/05/24 02:14:16;;;;;;;2.60;2.40;;;11.70;1.00;;;;;;5112450;28;20565;-57
2021/05/24 02:16:44;;;;;;;2.60;2.40;;;11.60;1.00;;;;;;5112139;27;20185;-57
2021/05/24 02:19:12;;;;;;;6.03;2.43;;;11.60;1.00;;;;;;5112185;28;20183;-57
2021/05/24 02:21:38;;;;;;;3.20;2.43;;;11.60;1.00;;;;;;5111657;28;20461;-57
2021/05/24 02:24:05;;;;;;;2.90;2.60;;;11.60;1.00;;;;;;5111349;28;20805;-57
2021/05/24 02:26:32;;;;;;;3.50;2.87;;;11.60;1.00;;;;;;5112179;28;20442;-57
2021/05/24 02:28:58;;;;;;;3.97;3.20;;;11.60;1.00;;;;;;5111494;28;20462;-57
2021/05/24 02:31:24;;;;;;;3.00;2.80;;;11.60;1.00;;;;;;5093790;28;20440;-57
2021/05/24 02:33:50;;;;;;;3.60;3.30;;;11.50;1.00;;;;;;5111715;28;20202;-57
2021/05/24 02:36:16;;;;;;;3.37;2.63;;;11.50;1.00;;;;;;5111321;28;20274;-57
2021/05/24 02:38:42;;;;;;;4.30;2.80;;;11.50;1.00;;;;;;5111972;28;20223;-57
2021/05/24 02:41:08;;;;;;;4.07;2.80;;;11.50;1.00;;;;;;5111758;28;20432;-57
2021/05/24 02:43:33;;;;;;;3.10;2.80;;;11.40;1.00;;;;;;5111423;28;20418;-57
2021/05/24 02:45:59;;;;;;;3.70;2.70;;;11.40;1.00;;;;;;5108790;27;20243;-57
2021/05/24 02:48:25;;;;;;;3.10;2.80;;;11.30;1.00;;;;;;5107876;28;20317;-58
2021/05/24 02:50:51;;;;;;;2.87;2.57;;;11.30;1.00;;;;;;5111809;28;20196;-57
2021/05/24 02:53:17;;;;;;;3.43;3.13;;;11.30;1.00;;;;;;5110712;28;20482;-56
2021/05/24 02:55:43;;;;;;;4.50;2.70;;;11.30;1.00;;;;;;5107977;28;20444;-57
2021/05/24 02:58:08;;;;;;;4.47;3.87;;;11.40;1.00;;;;;;5087382;28;20213;-57
2021/05/24 03:00:34;;;;;;;3.73;3.10;;;11.40;1.00;;;;;;5111173;28;20877;-57
2021/05/24 03:03:00;;;;;;;3.23;2.90;;;11.30;1.00;;;;;;5101337;27;20197;-57
2021/05/24 03:05:26;;;;;;;4.00;3.20;;;11.40;1.00;;;;;;5092636;28;20439;-57
2021/05/24 03:07:53;;;;;;;2.90;2.43;;;11.40;1.00;;;;;;5092861;28;20696;-57
2021/05/24 03:10:22;;;;;;;2.87;2.67;;;11.50;1.00;;;;;;5110789;28;20501;-57
2021/05/24 03:12:48;;;;;;;4.33;3.17;;;11.50;1.00;;;;;;5111151;28;20454;-57
2021/05/24 03:15:16;;;;;;;3.50;3.10;;;11.30;1.00;;;;;;5111207;28;20444;-57
2021/05/24 03:17:42;;;;;;;4.07;3.40;;;11.30;1.00;;;;;;5110847;28;20433;-57
2021/05/24 03:20:09;;;;;;;3.80;2.60;;;11.20;1.00;;;;;;5110906;28;20445;-57
2021/05/24 03:22:35;;;;;;;6.03;2.33;;;11.20;1.00;;;;;;5110848;28;20451;-57
2021/05/24 03:25:01;;;;;;;4.73;3.17;;;11.20;1.00;;;;;;5110875;28;20513;-57
2021/05/24 03:27:26;;;;;;;2.40;2.20;;;11.30;1.00;;;;;;5110710;28;20176;-57
2021/05/24 03:29:52;;;;;;;4.20;3.23;;;11.40;1.00;;;;;;5110621;28;20212;-57
2021/05/24 03:32:18;;;;;;;3.90;3.50;;;11.60;1.00;;;;;;5111008;27;20203;-58
2021/05/24 03:34:43;;;;;;;3.20;2.77;;;11.80;1.00;;;;;;5109530;27;20257;-57
2021/05/24 03:37:09;;;;;;;3.13;2.30;;;12.00;1.00;;;;;;5109973;28;20213;-57
2021/05/24 03:39:34;;;;;;;3.00;2.70;;;12.30;1.00;;;;;;5110053;28;20192;-57
2021/05/24 03:42:00;;;;;;;2.63;2.43;;;12.40;1.00;;;;;;5110627;28;20220;-57
2021/05/24 03:44:25;;;;;;;3.43;2.83;;;12.40;1.00;;;;;;5110394;28;20185;-57
2021/05/24 03:46:51;;;;;;;2.80;2.50;;;12.20;1.00;;;;;;5110243;28;20241;-56
2021/05/24 03:49:17;;;;;;;2.97;2.50;;;12.00;1.00;;;;;;5092120;28;20178;-57
2021/05/24 03:51:42;;;;;;;4.50;3.40;;;11.90;1.00;;;;;;5110203;28;20493;-57
2021/05/24 03:54:08;;;;;;;3.53;3.23;;;11.90;1.00;;;;;;5110140;28;20201;-57
2021/05/24 03:56:34;;;;;;;3.03;2.70;;;11.80;1.00;;;;;;5110648;28;20181;-57
2021/05/24 03:59:00;;;;;;;4.77;3.17;;;11.70;1.00;;;;;;5110484;28;20178;-57
2021/05/24 04:01:25;;;;;;;3.27;2.77;;;11.60;1.00;;;;;;5093744;28;20223;-57
2021/05/24 04:03:52;;;;;;;3.40;3.10;;;11.80;1.00;;;;;;5091618;28;20432;-57
2021/05/24 04:06:18;;;;;;;3.43;3.13;;;11.70;1.00;;;;;;5110128;28;20185;-57
2021/05/24 04:08:46;;;;;;;3.47;3.00;;;11.70;1.00;;;;;;5109902;28;20584;-57
2021/05/24 04:11:13;;;;;;;3.20;2.90;;;11.80;1.00;;;;;;5109888;28;20185;-57
2021/05/24 04:13:40;;;;;;;3.33;2.90;;;11.80;1.00;;;;;;5109787;28;20995;-57
2021/05/24 04:16:06;;;;;;;3.83;3.43;;;11.90;1.00;;;;;;5110372;28;20435;-57
2021/05/24 04:18:34;;;;;;;3.73;3.37;;;11.80;1.00;;;;;;5109990;28;20432;-57
2021/05/24 04:21:04;;;;;;;3.40;2.83;;;11.90;1.00;;;;;;5110091;28;20181;-57
2021/05/24 04:23:29;;;;;;;3.43;3.07;;;12.00;1.00;;;;;;5111224;28;20869;-57
2021/05/24 04:25:55;;;;;;;3.57;3.27;;;12.00;1.00;;;;;;5114469;28;20534;-57
2021/05/24 04:28:20;;;;;;;3.20;2.93;;;12.00;1.00;;;;;;5113982;28;20216;-57
2021/05/24 04:30:46;;;;;;;5.43;3.03;;;12.10;1.00;;;;;;5114013;27;20592;-57
2021/05/24 04:33:12;;;;;;;3.37;2.70;;;12.20;1.00;;;;;;5109166;27;20295;-57
2021/05/24 04:35:38;;;;;;;4.43;2.87;;;12.20;1.00;;;;;;5095055;28;20191;-57
2021/05/24 04:38:04;;;;;;;4.23;2.67;;;12.30;1.00;;;;;;5113703;28;20299;-57
2021/05/24 04:40:31;;;;;;;3.77;2.80;;;12.40;1.00;;;;;;5113666;28;20180;-57
2021/05/24 04:42:57;;;;;;;2.90;2.70;;;12.40;1.00;;;;;;5111753;28;20434;-57
2021/05/24 04:45:23;;;;;;;3.60;3.27;;;12.50;1.00;;;;;;5092103;28;20919;-57
2021/05/24 04:47:49;;;;;;;2.90;2.63;;;12.60;1.00;;;;;;5113541;28;20507;-57
2021/05/24 04:50:15;;;;;;;3.10;2.40;;;12.60;1.00;;;;;;5113749;28;20454;-57
2021/05/24 04:52:40;;;;;;;3.17;2.90;;;12.80;1.00;;;;;;5113948;28;20229;-57
2021/05/24 04:55:08;;;;;;;3.03;2.57;;;12.80;1.00;;;;;;5113584;28;20182;-57
2021/05/24 04:57:33;;;;;;;2.60;2.40;;;12.90;1.00;;;;;;5113568;28;20212;-57
2021/05/24 04:59:59;;;;;;;3.37;3.07;;;12.80;1.00;;;;;;5113281;28;20486;-57
2021/05/24 05:02:27;;;;;;;2.93;2.60;;;13.00;1.00;;;;;;5113589;28;20178;-57
2021/05/24 05:04:53;;;;;;;4.20;2.87;;;13.10;1.00;;;;;;5113359;28;21089;-57
2021/05/24 05:07:18;;;;;;;2.77;2.57;;;13.20;1.00;;;;;;5111042;28;20467;-57
2021/05/24 05:09:44;;;;;;;3.53;2.57;;;13.40;1.00;;;;;;5113621;28;20482;-57
2021/05/24 05:12:09;;;;;;;2.80;2.60;;;13.60;1.00;;;;;;5095157;28;20214;-57
2021/05/24 05:14:35;;;;;;;3.40;2.33;;;13.70;1.00;;;;;;5113524;28;20205;-58
2021/05/24 05:17:01;;;;;;;3.20;2.47;;;13.80;1.00;;;;;;5114239;27;20186;-57
2021/05/24 05:19:26;;;;;;;3.10;2.43;;;14.00;1.00;;;;;;5090759;28;20182;-57
2021/05/24 05:21:52;;;;;;;4.70;2.50;;;14.00;1.00;;;;;;5113286;28;20204;-57
2021/05/24 05:24:18;;;;;;;3.43;2.50;;;14.10;1.00;;;;;;5113431;28;20178;-57
2021/05/24 05:26:44;;;;;;;6.37;2.33;;;14.30;1.00;;;;;;5112692;28;20217;-57
2021/05/24 05:29:10;;;;;;;2.33;2.13;;;14.30;1.00;;;;;;5113056;28;20479;-57
2021/05/24 05:31:35;;;;;;;4.53;2.37;;;14.40;1.00;;;;;;5113152;28;20182;-57
2021/05/24 05:34:01;;;;;;;3.30;2.30;;;14.50;1.00;;;;;;5112907;28;20608;-57
2021/05/24 05:36:28;;;;;;;3.57;2.80;;;14.50;1.00;;;;;;5111421;28;20319;-57
2021/05/24 05:38:54;;;;;;;2.93;2.67;;;14.40;1.00;;;;;;5106499;28;20179;-57
2021/05/24 05:41:20;;;;;;;3.50;2.20;;;14.30;1.00;;;;;;5112879;28;20446;-56
2021/05/24 05:43:45;;;;;;;2.93;2.13;;;14.30;1.00;;;;;;5112720;28;20193;-56
2021/05/24 05:46:11;;;;;;;3.50;2.13;;;14.40;1.00;;;;;;5113722;27;20452;-57
2021/05/24 05:48:37;;;;;;;3.23;2.50;;;14.50;1.00;;;;;;5109695;28;20174;-56
2021/05/24 05:51:03;;;;;;;3.53;2.00;;;14.50;1.00;;;;;;5113219;28;20178;-57
2021/05/24 05:53:29;;;;;;;2.43;2.23;;;14.50;1.00;;;;;;5112666;28;20205;-55
2021/05/24 05:55:55;;;;;;;2.53;2.33;;;14.50;1.00;;;;;;5112713;28;20428;-55
2021/05/24 05:58:20;;;;;;;3.00;2.17;;;14.50;1.00;;;;;;5112452;28;20243;-56
2021/05/24 06:00:46;;;;;;;3.80;2.30;;;14.50;1.00;;;;;;5112215;28;20265;-57
2021/05/24 06:03:13;;;;;;;2.73;2.40;;;14.60;1.00;;;;;;5112287;28;20217;-56
2021/05/24 06:05:39;;;;;;;4.03;2.00;;;14.60;1.00;;;;;;5112316;28;20710;-57
2021/05/24 06:08:05;;;;;;;3.70;2.13;;;14.60;1.00;;;;;;5112427;28;20530;-57
2021/05/24 06:10:31;;;;;;;2.60;2.33;;;14.80;1.00;;;;;;5108692;28;20451;-56
2021/05/24 06:12:57;;;;;;;2.63;2.17;;;14.90;1.00;;;;;;5112238;28;20481;-57
2021/05/24 06:15:23;;;;;;;3.37;2.30;;;15.20;1.00;;;;;;5093569;28;20471;-55
2021/05/24 06:17:49;;;;;;;2.37;2.17;;;15.50;1.00;;;;;;5111420;28;20470;-56
2021/05/24 06:20:16;;;;;;;2.10;2.00;;;15.60;1.00;;;;;;5111401;28;20208;-56
2021/05/24 06:22:41;;;;;;;2.33;1.90;;;15.70;1.00;;;;;;5111604;28;20562;-58
2021/05/24 06:25:08;;;;;;;4.10;1.97;;;15.80;1.00;;;;;;5112003;28;20436;-56
2021/05/24 06:27:34;;;;;;;2.57;2.10;;;16.00;1.00;;;;;;5111479;28;20182;-56
2021/05/24 06:30:00;;;;;;;2.63;2.00;;;16.00;1.00;;;;;;5089610;28;20428;-57
2021/05/24 06:32:25;;;;;;;3.97;2.23;;;16.10;1.00;;;;;;5092138;28;20259;-57
2021/05/24 06:34:51;;;;;;;2.03;1.87;;;16.20;1.00;;;;;;5111815;28;20204;-57
2021/05/24 06:37:16;;;;;;;3.07;2.70;;;16.20;1.00;;;;;;5111345;28;20241;-56
2021/05/24 06:39:42;;;;;;;2.43;2.20;;;16.40;1.00;;;;;;5111644;28;20182;-58
2021/05/24 06:42:08;;;;;;;2.90;1.90;;;16.50;1.00;;;;;;5108266;27;20216;-57
2021/05/24 06:44:34;;;;;;;2.33;2.07;;;16.40;1.00;;;;;;5109411;28;20218;-56
2021/05/24 06:46:59;;;;;;;2.07;1.83;;;16.30;1.00;;;;;;5110779;28;20913;-56
2021/05/24 06:49:25;;;;;;;2.40;1.90;;;16.40;1.00;;;;;;5111879;28;20194;-55
2021/05/24 06:51:51;;;;;;;2.53;2.10;;;16.40;1.00;;;;;;5107782;28;20201;-56
2021/05/24 06:54:17;;;;;;;2.73;2.47;;;16.40;1.00;;;;;;5108990;28;20292;-56
2021/05/24 06:56:42;;;;;;;3.40;2.00;;;16.40;1.00;;;;;;5110874;28;20227;-55
2021/05/24 06:59:08;;;;;;;4.30;2.37;;;16.40;1.00;;;;;;5110177;28;20531;-56
2021/05/24 07:01:35;;;;;;;3.40;2.60;;;16.40;1.00;;;;;;5088348;28;20274;-57
2021/05/24 07:04:01;;;;;;;2.73;2.07;;;16.30;1.00;;;;;;5107492;28;20190;-57
2021/05/24 07:06:27;;;;;;;3.00;2.70;;;16.40;1.00;;;;;;5099128;28;20438;-58
2021/05/24 07:08:52;;;;;;;4.90;2.50;;;16.40;1.00;;;;;;5091309;28;20186;-59
2021/05/24 07:11:18;;;;;;;3.33;2.77;;;16.30;1.00;;;;;;5096563;28;20227;-57
2021/05/24 07:13:43;;;;;;;3.00;2.20;;;16.50;1.00;;;;;;5111001;28;20198;-58
2021/05/24 07:16:09;;;;;;;2.50;2.10;;;16.70;1.00;;;;;;5109792;28;20209;-57
2021/05/24 07:18:34;;;;;;;2.13;1.93;;;16.90;1.00;;;;;;5110670;28;20170;-59
2021/05/24 07:21:03;;;;;;;2.40;2.10;;;17.00;1.00;;;;;;5110014;28;20274;-58
2021/05/24 07:23:28;;;;;;;3.03;2.57;;;18.90;1.00;;;;;;5093542;28;20568;-59
2021/05/24 07:25:54;;;;;;;3.80;2.23;;;17.10;1.00;;;;;;5109796;28;20793;-57
2021/05/24 07:28:19;;;;;;;3.23;1.90;;;17.20;1.00;;;;;;5106802;28;20272;-58
2021/05/24 07:30:45;;;;;;;2.70;2.10;;;17.30;1.00;;;;;;5109827;28;20198;-59
2021/05/24 07:33:10;;;;;;;3.50;2.10;;;17.30;1.00;;;;;;5102293;28;20205;-59
2021/05/24 07:35:36;;;;;;;3.13;2.20;;;17.30;1.00;;;;;;5106129;28;21471;-57
2021/05/24 07:38:01;;;;;;;2.37;2.03;;;17.50;1.00;;;;;;5097553;28;20218;-59
2021/05/24 07:40:27;;;;;;;2.60;2.23;;;17.60;1.00;;;;;;5110450;28;20235;-57
2021/05/24 07:42:52;;;;;;;2.07;1.87;;;17.70;1.00;;;;;;5109843;28;20189;-57
2021/05/24 07:45:18;;;;;;;3.67;2.27;;;17.70;1.00;;;;;;5094082;28;20195;-56
2021/05/24 07:47:44;;;;;;;2.93;2.00;;;17.60;1.00;;;;;;5110202;28;20188;-57
2021/05/24 07:50:10;;;;;;;3.43;2.30;;;17.60;1.00;;;;;;5109578;28;20198;-58
2021/05/24 07:52:35;;;;;;;3.63;1.80;;;17.60;1.00;;;;;;5107998;28;20653;-56
2021/05/24 07:55:02;;;;;;;2.13;1.80;;;17.60;1.00;;;;;;5103933;28;20438;-57
2021/05/24 07:57:28;;;;;;;2.20;2.00;;;17.50;1.00;;;;;;5091697;28;20235;-56
2021/05/24 07:59:54;;;;;;;2.60;1.83;;;17.50;1.00;;;;;;5106692;28;20448;-56
2021/05/24 08:02:22;;;;;;;3.60;2.20;;;17.50;1.00;;;;;;5108754;28;20284;-56
2021/05/24 08:04:47;;;;;;;2.93;2.10;;;17.70;1.00;;;;;;5109431;28;20182;-56
2021/05/24 08:07:13;;;;;;;3.10;2.20;;;17.80;1.00;;;;;;5092530;28;20481;-56
2021/05/24 08:09:39;;;;;;;2.90;2.30;;;17.80;1.00;;;;;;5105575;28;20639;-56
2021/05/24 08:12:04;;;;;;;2.80;2.13;;;18.00;1.00;;;;;;5110483;28;20182;-56
2021/05/24 08:14:30;;;;;;;4.37;2.30;;;17.90;1.00;;;;;;5109811;28;20456;-55
2021/05/24 08:16:58;;;;;;;2.53;1.93;;;17.90;1.00;;;;;;5108477;28;20963;-56
2021/05/24 08:19:23;;;;;;;3.83;2.20;;;17.90;1.00;;;;;;5109601;28;21736;-56
2021/05/24 08:21:50;;;;;;;2.80;2.00;;;18.10;1.00;;;;;;5102509;28;20440;-55
2021/05/24 08:24:17;;;;;;;2.63;2.17;;;18.20;1.00;;;;;;5110158;28;20842;-55
2021/05/24 08:26:44;;;;;;;2.30;2.10;;;18.10;1.00;;;;;;5109585;28;20445;-55
2021/05/24 08:29:10;;;;;;;2.70;2.37;;;18.10;1.00;;;;;;5110042;28;20482;-56
2021/05/24 08:31:36;;;;;;;3.10;1.90;;;18.00;1.00;;;;;;5090722;28;20585;-55
2021/05/24 08:34:03;;;;;;;2.80;1.90;;;18.20;1.00;;;;;;5109184;28;20467;-55
2021/05/24 08:36:28;;;;;;;2.20;2.00;;;18.20;1.00;;;;;;5108986;28;20895;-54
2021/05/24 08:38:54;;;;;;;2.00;1.80;;;18.40;1.00;;;;;;5107056;28;20424;-56
2021/05/24 08:41:20;;;;;;;3.20;2.30;;;18.50;1.00;;;;;;5108951;28;20649;-56
2021/05/24 08:43:46;;;;;;;2.57;2.27;;;18.80;1.00;;;;;;5106007;28;20243;-55
2021/05/24 08:46:12;;;;;;;3.20;2.20;;;18.90;1.00;;;;;;5109110;28;20439;-56
2021/05/24 08:48:37;;;;;;;4.20;2.10;;;19.10;1.00;;;;;;5108729;28;20190;-54
2021/05/24 08:51:08;;;;;;;2.90;2.60;;;18.90;1.00;;;;;;5110158;28;20208;-56
2021/05/24 08:53:37;;;;;;;2.63;2.13;;;18.90;1.00;;;;;;5109998;28;20554;-57
2021/05/24 08:56:03;;;;;;;2.77;2.03;;;18.90;1.00;;;;;;5109853;28;20475;-56
2021/05/24 08:58:29;;;;;;;2.43;2.20;;;19.00;1.00;;;;;;5109632;28;20932;-54
2021/05/24 09:00:55;;;;;;;2.30;1.73;;;18.90;1.00;;;;;;5110006;28;20438;-56
2021/05/24 09:03:23;;;;;;;2.00;1.90;;;19.00;1.00;;;;;;5105796;28;20191;-54
2021/05/24 09:05:49;;;;;;;3.43;1.93;;;19.10;1.00;;;;;;5100458;28;20205;-55
2021/05/24 09:08:15;;;;;;;2.33;2.13;;;19.40;1.00;;;;;;5099100;28;20439;-57
2021/05/24 09:10:43;;;;;;;2.13;1.90;;;19.80;1.00;;;;;;5092015;28;20428;-59
2021/05/24 09:13:20;;;;;;;2.07;1.87;;;19.80;1.00;;;;;;5106711;28;20200;-55
2021/05/24 09:15:47;;;;;;;1.90;1.70;;;19.80;1.00;;;;;;5113583;28;21093;-56
2021/05/24 09:18:17;;;;;;;2.53;2.00;;;19.90;1.00;;;;;;5113465;28;20439;-56
2021/05/24 09:20:45;;;;;;;3.40;2.00;;;20.10;1.00;;;;;;5113510;28;20454;-58
2021/05/24 09:23:25;;;;;;;3.37;1.80;;;20.00;1.00;;;;;;5113590;28;20955;-57
2021/05/24 09:26:00;;;;;;;2.50;1.93;;;20.30;1.00;;;;;;5113480;28;20438;-58
2021/05/24 09:28:39;;;;;;;2.40;1.80;;;20.40;1.00;;;;;;5113054;28;20491;-57
2021/05/24 09:31:16;;;;;;;3.40;2.10;;;20.40;1.00;;;;;;5113256;28;20572;-57
2021/05/24 09:33:44;;;;;;;2.17;1.80;;;20.50;1.00;;;;;;5108985;27;20510;-57
2021/05/24 09:36:11;;;;;;;1.70;1.60;;;20.60;1.00;;;;;;5096403;27;20471;-57
2021/05/24 09:38:45;;;;;;;2.50;1.40;;;20.50;1.00;;;;;;5110581;28;20463;-57
2021/05/24 09:41:13;;;;;;;2.23;1.20;;;20.80;1.00;;;;;;5112312;28;20438;-55
2021/05/24 09:43:41;;;;;;;3.10;1.77;;;21.00;1.00;;;;;;5113140;28;20509;-57
2021/05/24 09:46:18;;;;;;;2.20;1.50;;;20.90;1.00;;;;;;5112882;28;20549;-56
2021/05/24 09:48:46;;;;;;;2.00;1.43;;;21.00;1.00;;;;;;5113182;27;20439;-55
2021/05/24 09:51:14;;;;;;;1.43;1.33;;;21.00;1.00;;;;;;5112780;28;20436;-57
2021/05/24 09:53:41;;;;;;;3.13;1.23;;;21.00;1.00;;;;;;5112419;28;20467;-55
2021/05/24 09:56:11;;;;;;;1.90;0.87;;;21.10;1.00;;;;;;5093994;28;20447;-56
2021/05/24 09:58:37;;;;;;;1.30;1.00;;;21.30;1.00;;;;;;5112647;28;20434;-57
2021/05/24 10:01:21;;;;;;;0.90;0.70;;;21.10;1.00;;;;;;5112552;28;20466;-57
2021/05/24 10:03:56;;;;;;;2.33;0.93;;;21.20;1.00;;;;;;5112564;28;20430;-56
2021/05/24 10:06:22;;;;;;;1.00;0.73;;;21.30;1.00;;;;;;5112216;28;20781;-56
2021/05/24 10:08:47;;;;;;;1.30;1.20;;;21.30;1.00;;;;;;5110553;27;20441;-57
2021/05/24 10:11:13;;;;;;;1.00;0.70;;;21.50;1.00;;;;;;5077355;28;20195;-56
2021/05/24 10:13:38;;;;;;;1.10;0.87;;;21.30;1.00;;;;;;5094895;28;20198;-57
2021/05/24 10:16:05;;;;;;;1.23;1.13;;;21.40;1.00;;;;;;5112627;28;20294;-56
2021/05/24 10:18:32;;;;;;;1.10;0.70;;;21.50;1.00;;;;;;5112270;28;20708;-55
2021/05/24 10:20:59;;;;;;;1.60;0.77;;;21.30;1.00;;;;;;5093246;28;20436;-56
2021/05/24 10:23:29;;;;;;;1.50;0.83;;;21.10;1.00;;;;;;5098941;28;20434;-56
2021/05/24 10:25:58;;;;;;;1.40;0.80;;;20.90;1.00;;;;;;5091753;28;20465;-55
2021/05/24 10:28:29;;;;;;;1.37;0.80;;;21.00;1.00;;;;;;5090554;28;20477;-55
2021/05/24 10:30:57;;;;;;;3.03;0.97;;;21.10;1.00;;;;;;5093741;28;20484;-55
2021/05/24 10:33:26;;;;;;;0.80;0.70;;;21.40;1.00;;;;;;5105414;28;20554;-56
2021/05/24 10:35:52;;;;;;;1.53;0.90;;;21.50;1.00;;;;;;5111534;28;20442;-56
2021/05/24 10:38:32;;;;;;;1.83;1.13;;;21.70;1.00;;;;;;5111693;28;20953;-54
2021/05/24 10:41:16;;;;;;;1.03;0.73;;;21.50;1.00;;;;;;5110685;27;20578;-57
2021/05/24 10:43:45;;;;;;;1.73;1.03;;;21.30;1.00;;;;;;5110886;28;20443;-55
2021/05/24 10:46:25;;;;;;;1.83;1.10;;;21.30;1.00;;;;;;5111807;28;20418;-54
2021/05/24 10:49:10;;;;;;;1.50;1.10;;;21.40;1.00;;;;;;5111459;27;20887;-56
2021/05/24 10:51:58;;;;;;;3.23;0.90;;;21.60;1.00;;;;;;5091602;28;20538;-55
2021/05/24 10:54:37;;;;;;;2.10;0.80;;;21.60;1.00;;;;;;5110854;28;20468;-55
2021/05/24 10:57:03;;;;;;;0.87;0.77;;;21.60;1.00;;;;;;5110248;28;20471;-55
2021/05/24 11:02:29;;;;;;;2.47;1.30;;;21.80;1.00;;;;;;5111330;28;20464;-55
2021/05/24 11:05:04;;;;;;;1.20;0.90;;;22.10;1.00;;;;;;5107925;28;20489;-56
2021/05/24 11:07:38;;;;;;;1.67;0.87;;;22.50;1.00;;;;;;5108628;28;20462;-57
2021/05/24 11:10:19;;;;;;;2.30;1.00;;;22.50;1.00;;;;;;5103352;28;20837;-56
2021/05/24 11:12:49;;;;;;;1.77;1.17;;;22.60;1.00;;;;;;5100933;28;20499;-56
2021/05/24 11:15:29;;;;;;;1.20;1.10;;;22.70;1.00;;;;;;5100281;28;20440;-55
2021/05/24 11:18:04;;;;;;;1.23;1.03;;;22.80;1.00;;;;;;5110070;28;20526;-56
2021/05/24 11:20:33;;;;;;;1.50;1.30;;;22.70;1.00;;;;;;5110027;28;20438;-56
2021/05/24 11:23:23;;;;;;;1.63;1.10;;;22.50;1.00;;;;;;5107420;28;20921;-56
2021/05/24 11:28:15;;;;;;;1.27;1.17;;;22.70;1.00;;;;;;5091016;28;20451;-55
2021/05/24 11:30:42;;;;;;;1.80;1.40;;;22.80;1.00;;;;;;5106189;28;20433;-55
2021/05/24 11:33:35;;;;;;;5.30;1.10;;;22.80;1.00;;;;;;5108865;28;20677;-55
2021/05/24 11:36:01;;;;;;;1.10;0.90;;;22.80;1.00;;;;;;5107760;28;20467;-55
2021/05/24 11:38:30;;;;;;;1.20;1.10;;;22.70;1.00;;;;;;5107671;28;20432;-56
2021/05/24 11:41:12;;;;;;;1.80;1.07;;;22.70;1.00;;;;;;5106826;28;20177;-56
2021/05/24 11:43:39;;;;;;;1.63;1.40;;;23.30;1.00;;;;;;5110281;28;20440;-56
2021/05/24 11:46:07;;;;;;;1.50;1.00;;;24.60;1.00;;;;;;5107116;28;20440;-56
2021/05/24 11:48:45;;;;;;;3.10;1.10;;;24.60;1.00;;;;;;5104916;28;21002;-55
2021/05/24 11:51:15;;;;;;;2.40;1.23;;;24.50;1.00;;;;;;5110455;28;20437;-57
2021/05/24 11:54:03;;;;;;;3.03;1.37;;;24.10;1.00;;;;;;5108681;28;20441;-55
2021/05/24 11:56:37;;;;;;;3.90;1.17;;;23.70;1.00;;;;;;5110243;28;20770;-55
2021/05/24 11:59:04;;;;;;;2.50;1.00;;;23.20;1.00;;;;;;5107316;28;20601;-56
2021/05/24 12:01:31;;;;;;;2.20;1.20;;;23.00;1.00;;;;;;5108047;28;20451;-57
2021/05/24 12:03:56;;;;;;;1.80;0.97;;;22.80;1.00;;;;;;5108831;28;20682;-55
2021/05/24 12:06:23;;;;;;;2.27;1.40;;;22.40;1.00;;;;;;5108057;28;20707;-55
2021/05/24 12:08:49;;;;;;;1.77;1.20;;;22.20;1.00;;;;;;5108865;28;20333;-55
2021/05/24 12:11:15;;;;;;;1.77;0.90;;;22.00;1.00;;;;;;5108798;28;20516;-55
2021/05/24 12:13:57;;;;;;;2.37;1.00;;;22.00;1.00;;;;;;5109711;28;20466;-56
2021/05/24 12:16:23;;;;;;;2.10;1.57;;;21.90;1.00;;;;;;5102705;28;20440;-55
2021/05/24 12:18:57;;;;;;;1.27;1.10;;;21.80;1.00;;;;;;5106559;28;20465;-56
2021/05/24 12:21:35;;;;;;;2.20;1.20;;;21.80;1.00;;;;;;5102174;28;20439;-55
2021/05/24 12:24:02;;;;;;;1.40;1.13;;;22.00;1.00;;;;;;5109391;28;20409;-56
2021/05/24 12:26:28;;;;;;;1.37;1.17;;;21.90;1.00;;;;;;5093685;28;20447;-55
2021/05/24 12:28:55;;;;;;;1.20;1.10;;;22.10;1.00;;;;;;5110350;28;20426;-54
2021/05/24 12:31:21;;;;;;;3.20;1.63;;;22.20;1.00;;;;;;5108890;28;20243;-55
2021/05/24 12:33:47;;;;;;;2.80;1.30;;;22.40;1.00;;;;;;5106786;28;21726;-55
2021/05/24 12:36:20;;;;;;;1.30;1.20;;;22.30;1.00;;;;;;5106375;28;20723;-56
2021/05/24 12:38:52;;;;;;;3.10;1.40;;;22.20;1.00;;;;;;5106639;28;20955;-56
2021/05/24 12:41:20;;;;;;;1.63;1.47;;;22.10;1.00;;;;;;5104216;28;20451;-58
2021/05/24 12:43:53;;;;;;;2.83;1.80;;;22.00;1.00;;;;;;5109642;28;20534;-57
2021/05/24 12:46:21;;;;;;;1.70;1.40;;;22.00;1.00;;;;;;5112392;28;20463;-57
2021/05/24 12:48:53;;;;;;;2.83;1.80;;;22.20;1.00;;;;;;5113271;28;20451;-56
2021/05/24 12:51:27;;;;;;;1.40;1.30;;;22.10;1.00;;;;;;5111939;28;20509;-56
2021/05/24 12:54:01;;;;;;;1.80;1.50;;;22.30;1.00;;;;;;5113089;28;20467;-54
2021/05/24 12:56:46;;;;;;;2.50;1.73;;;22.40;1.00;;;;;;5113849;28;20443;-55
2021/05/24 12:59:16;;;;;;;2.60;1.93;;;22.50;1.00;;;;;;5111949;28;20450;-57
2021/05/24 13:01:43;;;;;;;2.60;2.30;;;22.50;1.00;;;;;;5112843;28;20443;-57
2021/05/24 13:04:09;;;;;;;1.27;1.17;;;22.70;1.00;;;;;;5113022;28;20806;-55
2021/05/24 13:06:42;;;;;;;1.87;1.70;;;23.10;1.00;;;;;;5112492;28;21024;-55